sensor_id;sensor_type;location;lat;lon;timestamp;temperature;humidity
4795;DHT22;2411;47.060;15.064;2023-06-10T00:02:26;13.50;99.90
4795;DHT22;2411;47.060;15.064;2023-06-10T00:04:54;13.50;99.90
4795;DHT22;2411;47.060;15.064;2023-06-10T00:07:22;13.50;99.90
4795;DHT22;2411;47.060;15.064;2023-06-10T00:09:50;13.50;99.90
4795;DHT22;2411;47.060;15.064;2023-06-10T00:12:17;13.50;99.90
4795;DHT22;2411;47.060;15.064;2023-06-10T00:14:45;13.40;99.90
4795;DHT22;2411;47.060;15.064;2023-06-10T00:17:12;13.20;99.90
4795;DHT22;2411;47.060;15.064;2023-06-10T00:19:39;13.20;99.90
4795;DHT22;2411;47.060;15.064;2023-06-10T00:22:08;13.10;99.90
4795;DHT22;2411;47.060;15.064;2023-06-10T00:24:38;13.10;99.90
4795;DHT22;2411;47.060;15.064;2023-06-10T00:27:06;13.20;99.90
4795;DHT22;2411;47.060;15.064;2023-06-10T00:29:34;13.20;99.90
4795;DHT22;2411;47.060;15.064;2023-06-10T00:32:02;13.30;99.90
4795;DHT22;2411;47.060;15.064;2023-06-10T00:34:30;13.30;99.90
4795;DHT22;2411;47.060;15.064;2023-06-10T00:36:57;13.40;99.90
4795;DHT22;2411;47.060;15.064;2023-06-10T00:39:24;13.40;99.90
4795;DHT22;2411;47.060;15.064;2023-06-10T00:41:52;13.30;99.90
4795;DHT22;2411;47.060;15.064;2023-06-10T00:44:19;13.30;99.90
4795;DHT22;2411;47.060;15.064;2023-06-10T00:46:47;13.20;99.90
4795;DHT22;2411;47.060;15.064;2023-06-10T00:49:14;13.10;99.90
4795;DHT22;2411;47.060;15.064;2023-06-10T00:51:42;13.10;99.90
4795;DHT22;2411;47.060;15.064;2023-06-10T00:54:09;13.00;99.90
4795;DHT22;2411;47.060;15.064;2023-06-10T00:56:40;12.90;99.90
4795;DHT22;2411;47.060;15.064;2023-06-10T00:59:10;12.80;99.90
4795;DHT22;2411;47.060;15.064;2023-06-10T01:01:37;12.80;99.90
4795;DHT22;2411;47.060;15.064;2023-06-10T01:04:06;12.80;99.90
4795;DHT22;2411;47.060;15.064;2023-06-10T01:06:54;12.70;99.90
4795;DHT22;2411;47.060;15.064;2023-06-10T01:12:00;12.70;99.90
4795;DHT22;2411;47.060;15.064;2023-06-10T01:14:29;12.70;99.90
4795;DHT22;2411;47.060;15.064;2023-06-10T01:17:00;12.70;99.90
4795;DHT22;2411;47.060;15.064;2023-06-10T01:19:28;12.70;99.90
4795;DHT22;2411;47.060;15.064;2023-06-10T01:21:58;12.70;99.90
4795;DHT22;2411;47.060;15.064;2023-06-10T01:24:28;12.50;99.90
4795;DHT22;2411;47.060;15.064;2023-06-10T01:27:00;12.50;99.90
4795;DHT22;2411;47.060;15.064;2023-06-10T01:29:35;12.50;99.90
4795;DHT22;2411;47.060;15.064;2023-06-10T01:32:10;12.50;99.90
4795;DHT22;2411;47.060;15.064;2023-06-10T01:34:42;12.50;99.90
4795;DHT22;2411;47.060;15.064;2023-06-10T01:37:13;12.60;99.90
4795;DHT22;2411;47.060;15.064;2023-06-10T01:39:43;12.60;99.90
4795;DHT22;2411;47.060;15.064;2023-06-10T01:42:11;12.50;99.90
4795;DHT22;2411;47.060;15.064;2023-06-10T01:44:39;12.60;99.90
4795;DHT22;2411;47.060;15.064;2023-06-10T01:47:07;12.60;99.90
4795;DHT22;2411;47.060;15.064;2023-06-10T01:49:34;12.50;99.90
4795;DHT22;2411;47.060;15.064;2023-06-10T01:52:02;12.50;99.90
4795;DHT22;2411;47.060;15.064;2023-06-10T01:54:29;12.30;99.90
4795;DHT22;2411;47.060;15.064;2023-06-10T01:56:57;12.30;99.90
4795;DHT22;2411;47.060;15.064;2023-06-10T01:59:24;12.30;99.90
4795;DHT22;2411;47.060;15.064;2023-06-10T02:01:51;12.20;99.90
4795;DHT22;2411;47.060;15.064;2023-06-10T02:04:19;12.20;99.90
4795;DHT22;2411;47.060;15.064;2023-06-10T02:06:46;12.20;99.90
4795;DHT22;2411;47.060;15.064;2023-06-10T02:09:13;12.20;99.90
4795;DHT22;2411;47.060;15.064;2023-06-10T02:11:41;12.20;99.90
4795;DHT22;2411;47.060;15.064;2023-06-10T02:14:08;12.30;99.90
4795;DHT22;2411;47.060;15.064;2023-06-10T02:16:35;12.20;99.90
4795;DHT22;2411;47.060;15.064;2023-06-10T02:19:02;12.20;99.90
4795;DHT22;2411;47.060;15.064;2023-06-10T02:21:33;12.20;99.90
4795;DHT22;2411;47.060;15.064;2023-06-10T02:24:04;12.20;99.90
4795;DHT22;2411;47.060;15.064;2023-06-10T02:26:32;12.20;99.90
4795;DHT22;2411;47.060;15.064;2023-06-10T02:28:59;12.10;99.90
4795;DHT22;2411;47.060;15.064;2023-06-10T02:31:26;12.00;99.90
4795;DHT22;2411;47.060;15.064;2023-06-10T02:33:56;12.00;99.90
4795;DHT22;2411;47.060;15.064;2023-06-10T02:36:23;12.10;99.90
4795;DHT22;2411;47.060;15.064;2023-06-10T02:38:51;12.00;99.90
4795;DHT22;2411;47.060;15.064;2023-06-10T02:41:18;12.10;99.90
4795;DHT22;2411;47.060;15.064;2023-06-10T02:43:45;12.10;99.90
4795;DHT22;2411;47.060;15.064;2023-06-10T02:46:13;12.10;99.90
4795;DHT22;2411;47.060;15.064;2023-06-10T02:48:41;12.00;99.90
4795;DHT22;2411;47.060;15.064;2023-06-10T02:51:10;12.00;99.90
4795;DHT22;2411;47.060;15.064;2023-06-10T02:53:37;11.90;99.90
4795;DHT22;2411;47.060;15.064;2023-06-10T02:56:05;12.00;99.90
4795;DHT22;2411;47.060;15.064;2023-06-10T02:58:32;12.00;99.90
4795;DHT22;2411;47.060;15.064;2023-06-10T03:01:00;12.00;99.90
4795;DHT22;2411;47.060;15.064;2023-06-10T03:03:28;12.00;99.90
4795;DHT22;2411;47.060;15.064;2023-06-10T03:05:55;12.10;99.90
4795;DHT22;2411;47.060;15.064;2023-06-10T03:08:23;12.10;99.90
4795;DHT22;2411;47.060;15.064;2023-06-10T03:10:51;12.20;99.90
4795;DHT22;2411;47.060;15.064;2023-06-10T03:13:18;12.20;99.90
4795;DHT22;2411;47.060;15.064;2023-06-10T03:15:45;12.10;99.90
4795;DHT22;2411;47.060;15.064;2023-06-10T03:18:14;12.10;99.90
4795;DHT22;2411;47.060;15.064;2023-06-10T03:20:41;12.00;99.90
4795;DHT22;2411;47.060;15.064;2023-06-10T03:23:09;11.90;99.90
4795;DHT22;2411;47.060;15.064;2023-06-10T03:25:36;12.00;99.90
4795;DHT22;2411;47.060;15.064;2023-06-10T03:28:04;12.00;99.90
4795;DHT22;2411;47.060;15.064;2023-06-10T03:30:31;12.00;99.90
4795;DHT22;2411;47.060;15.064;2023-06-10T03:32:58;12.00;99.90
4795;DHT22;2411;47.060;15.064;2023-06-10T03:35:26;12.10;99.90
4795;DHT22;2411;47.060;15.064;2023-06-10T03:37:53;12.10;99.90
4795;DHT22;2411;47.060;15.064;2023-06-10T03:40:21;12.20;99.90
4795;DHT22;2411;47.060;15.064;2023-06-10T03:42:48;12.20;99.90
4795;DHT22;2411;47.060;15.064;2023-06-10T03:45:15;12.30;99.90
4795;DHT22;2411;47.060;15.064;2023-06-10T03:47:43;12.30;99.90
4795;DHT22;2411;47.060;15.064;2023-06-10T03:50:10;12.40;99.90
4795;DHT22;2411;47.060;15.064;2023-06-10T03:52:38;12.40;99.90
4795;DHT22;2411;47.060;15.064;2023-06-10T03:55:07;12.40;99.90
4795;DHT22;2411;47.060;15.064;2023-06-10T03:57:35;12.50;99.90
4795;DHT22;2411;47.060;15.064;2023-06-10T04:00:02;12.50;99.90
4795;DHT22;2411;47.060;15.064;2023-06-10T04:02:35;12.50;99.90
4795;DHT22;2411;47.060;15.064;2023-06-10T04:05:04;12.50;99.90
4795;DHT22;2411;47.060;15.064;2023-06-10T04:07:32;12.50;99.90
4795;DHT22;2411;47.060;15.064;2023-06-10T04:09:59;12.40;99.90
4795;DHT22;2411;47.060;15.064;2023-06-10T04:12:26;12.40;99.90
4795;DHT22;2411;47.060;15.064;2023-06-10T04:14:54;12.40;99.90
4795;DHT22;2411;47.060;15.064;2023-06-10T04:17:21;12.50;99.90
4795;DHT22;2411;47.060;15.064;2023-06-10T04:19:48;12.60;99.90
4795;DHT22;2411;47.060;15.064;2023-06-10T04:22:16;12.60;99.90
4795;DHT22;2411;47.060;15.064;2023-06-10T04:24:44;12.70;99.90
4795;DHT22;2411;47.060;15.064;2023-06-10T04:27:12;12.70;99.90
4795;DHT22;2411;47.060;15.064;2023-06-10T04:29:39;12.80;99.90
4795;DHT22;2411;47.060;15.064;2023-06-10T04:32:07;12.80;99.90
4795;DHT22;2411;47.060;15.064;2023-06-10T04:34:35;12.90;99.90
4795;DHT22;2411;47.060;15.064;2023-06-10T04:37:02;12.90;99.90
4795;DHT22;2411;47.060;15.064;2023-06-10T04:39:30;12.90;99.90
4795;DHT22;2411;47.060;15.064;2023-06-10T04:41:57;12.90;99.90
4795;DHT22;2411;47.060;15.064;2023-06-10T04:44:24;13.00;99.90
4795;DHT22;2411;47.060;15.064;2023-06-10T04:46:51;13.00;99.90
4795;DHT22;2411;47.060;15.064;2023-06-10T04:49:19;13.00;99.90
4795;DHT22;2411;47.060;15.064;2023-06-10T04:51:46;13.10;99.90
4795;DHT22;2411;47.060;15.064;2023-06-10T04:54:13;13.20;99.90
4795;DHT22;2411;47.060;15.064;2023-06-10T04:56:41;13.30;99.90
4795;DHT22;2411;47.060;15.064;2023-06-10T04:59:08;13.50;99.90
4795;DHT22;2411;47.060;15.064;2023-06-10T05:01:35;13.70;99.90
4795;DHT22;2411;47.060;15.064;2023-06-10T05:04:03;13.90;99.90
4795;DHT22;2411;47.060;15.064;2023-06-10T05:06:31;14.10;99.90
4795;DHT22;2411;47.060;15.064;2023-06-10T05:08:59;14.40;96.00
4795;DHT22;2411;47.060;15.064;2023-06-10T05:11:26;14.60;93.40
4795;DHT22;2411;47.060;15.064;2023-06-10T05:13:53;14.80;98.00
4795;DHT22;2411;47.060;15.064;2023-06-10T05:16:20;15.00;99.90
4795;DHT22;2411;47.060;15.064;2023-06-10T05:18:48;15.00;86.20
4795;DHT22;2411;47.060;15.064;2023-06-10T05:21:18;15.10;72.70
4795;DHT22;2411;47.060;15.064;2023-06-10T05:23:45;15.00;63.60
4795;DHT22;2411;47.060;15.064;2023-06-10T05:26:12;15.00;72.80
4795;DHT22;2411;47.060;15.064;2023-06-10T05:28:40;15.20;77.40
4795;DHT22;2411;47.060;15.064;2023-06-10T05:31:07;15.30;63.00
4795;DHT22;2411;47.060;15.064;2023-06-10T05:33:34;15.30;53.50
4795;DHT22;2411;47.060;15.064;2023-06-10T05:36:02;15.20;50.20
4795;DHT22;2411;47.060;15.064;2023-06-10T05:38:29;15.30;56.20
4795;DHT22;2411;47.060;15.064;2023-06-10T05:40:56;15.50;57.10
4795;DHT22;2411;47.060;15.064;2023-06-10T05:43:24;15.40;52.70
4795;DHT22;2411;47.060;15.064;2023-06-10T05:45:51;15.60;51.80
4795;DHT22;2411;47.060;15.064;2023-06-10T05:48:19;15.70;58.30
4795;DHT22;2411;47.060;15.064;2023-06-10T05:50:46;15.80;54.00
4795;DHT22;2411;47.060;15.064;2023-06-10T05:53:15;15.80;51.10
4795;DHT22;2411;47.060;15.064;2023-06-10T05:55:43;16.00;53.70
4795;DHT22;2411;47.060;15.064;2023-06-10T05:58:11;16.00;47.50
4795;DHT22;2411;47.060;15.064;2023-06-10T06:00:39;15.80;47.70
4795;DHT22;2411;47.060;15.064;2023-06-10T06:03:07;15.80;51.70
4795;DHT22;2411;47.060;15.064;2023-06-10T06:05:38;15.80;51.40
4795;DHT22;2411;47.060;15.064;2023-06-10T06:08:06;15.70;46.70
4795;DHT22;2411;47.060;15.064;2023-06-10T06:10:34;15.70;44.00
4795;DHT22;2411;47.060;15.064;2023-06-10T06:13:01;15.90;44.30
4795;DHT22;2411;47.060;15.064;2023-06-10T06:15:30;16.10;45.90
4795;DHT22;2411;47.060;15.064;2023-06-10T06:17:57;16.20;46.20
4795;DHT22;2411;47.060;15.064;2023-06-10T06:20:25;16.40;46.00
4795;DHT22;2411;47.060;15.064;2023-06-10T06:22:52;16.60;45.80
4795;DHT22;2411;47.060;15.064;2023-06-10T06:25:19;16.60;41.60
4795;DHT22;2411;47.060;15.064;2023-06-10T06:27:47;16.60;45.10
4795;DHT22;2411;47.060;15.064;2023-06-10T06:30:14;16.50;48.30
4795;DHT22;2411;47.060;15.064;2023-06-10T06:32:41;16.50;44.60
4795;DHT22;2411;47.060;15.064;2023-06-10T06:35:09;16.70;44.90
4795;DHT22;2411;47.060;15.064;2023-06-10T06:37:37;16.80;45.10
4795;DHT22;2411;47.060;15.064;2023-06-10T06:40:04;16.90;44.90
4795;DHT22;2411;47.060;15.064;2023-06-10T06:42:32;17.00;45.10
4795;DHT22;2411;47.060;15.064;2023-06-10T06:44:59;17.10;40.60
4795;DHT22;2411;47.060;15.064;2023-06-10T06:47:26;16.90;35.80
4795;DHT22;2411;47.060;15.064;2023-06-10T06:49:54;17.00;57.00
4795;DHT22;2411;47.060;15.064;2023-06-10T06:52:21;17.10;37.20
4795;DHT22;2411;47.060;15.064;2023-06-10T06:54:49;17.40;38.30
4795;DHT22;2411;47.060;15.064;2023-06-10T06:57:16;17.60;38.20
4795;DHT22;2411;47.060;15.064;2023-06-10T06:59:44;17.80;35.80
4795;DHT22;2411;47.060;15.064;2023-06-10T07:02:11;18.10;37.40
4795;DHT22;2411;47.060;15.064;2023-06-10T07:04:38;18.00;34.50
4795;DHT22;2411;47.060;15.064;2023-06-10T07:07:08;18.20;35.50
4795;DHT22;2411;47.060;15.064;2023-06-10T07:09:37;18.40;34.90
4795;DHT22;2411;47.060;15.064;2023-06-10T07:12:04;18.50;36.80
4795;DHT22;2411;47.060;15.064;2023-06-10T07:14:33;18.70;35.50
4795;DHT22;2411;47.060;15.064;2023-06-10T07:17:00;18.60;31.30
4795;DHT22;2411;47.060;15.064;2023-06-10T07:19:27;18.50;32.10
4795;DHT22;2411;47.060;15.064;2023-06-10T07:21:55;18.60;30.70
4795;DHT22;2411;47.060;15.064;2023-06-10T07:24:22;18.80;30.80
4795;DHT22;2411;47.060;15.064;2023-06-10T07:26:50;18.70;29.10
4795;DHT22;2411;47.060;15.064;2023-06-10T07:29:17;18.80;47.20
4795;DHT22;2411;47.060;15.064;2023-06-10T07:31:45;18.90;29.10
4795;DHT22;2411;47.060;15.064;2023-06-10T07:34:12;18.70;27.30
4795;DHT22;2411;47.060;15.064;2023-06-10T07:36:39;19.10;29.20
4795;DHT22;2411;47.060;15.064;2023-06-10T07:39:06;19.20;29.10
4795;DHT22;2411;47.060;15.064;2023-06-10T07:41:35;19.50;31.50
4795;DHT22;2411;47.060;15.064;2023-06-10T07:44:02;19.60;32.80
4795;DHT22;2411;47.060;15.064;2023-06-10T07:46:29;19.60;32.00
4795;DHT22;2411;47.060;15.064;2023-06-10T07:48:57;19.90;33.40
4795;DHT22;2411;47.060;15.064;2023-06-10T07:51:24;19.70;31.60
4795;DHT22;2411;47.060;15.064;2023-06-10T07:53:51;19.90;31.60
4795;DHT22;2411;47.060;15.064;2023-06-10T07:56:19;19.70;31.90
4795;DHT22;2411;47.060;15.064;2023-06-10T07:58:47;20.00;34.90
4795;DHT22;2411;47.060;15.064;2023-06-10T08:01:15;20.40;36.60
4795;DHT22;2411;47.060;15.064;2023-06-10T08:03:42;20.30;35.40
4795;DHT22;2411;47.060;15.064;2023-06-10T08:06:10;20.70;36.20
4795;DHT22;2411;47.060;15.064;2023-06-10T08:08:38;20.70;36.10
4795;DHT22;2411;47.060;15.064;2023-06-10T08:11:13;20.70;35.70
4795;DHT22;2411;47.060;15.064;2023-06-10T08:13:41;20.40;33.90
4795;DHT22;2411;47.060;15.064;2023-06-10T08:16:08;20.60;36.10
4795;DHT22;2411;47.060;15.064;2023-06-10T08:18:35;20.80;37.40
4795;DHT22;2411;47.060;15.064;2023-06-10T08:21:03;20.90;36.90
4795;DHT22;2411;47.060;15.064;2023-06-10T08:23:30;20.90;37.40
4795;DHT22;2411;47.060;15.064;2023-06-10T08:25:57;20.90;36.20
4795;DHT22;2411;47.060;15.064;2023-06-10T08:28:25;21.00;35.70
4795;DHT22;2411;47.060;15.064;2023-06-10T08:30:52;21.10;34.70
4795;DHT22;2411;47.060;15.064;2023-06-10T08:33:23;21.20;35.70
4795;DHT22;2411;47.060;15.064;2023-06-10T08:35:50;21.20;37.20
4795;DHT22;2411;47.060;15.064;2023-06-10T08:38:17;21.50;38.10
4795;DHT22;2411;47.060;15.064;2023-06-10T08:40:45;21.90;40.90
4795;DHT22;2411;47.060;15.064;2023-06-10T08:46:08;21.80;41.30
4795;DHT22;2411;47.060;15.064;2023-06-10T08:48:41;21.50;34.60
4795;DHT22;2411;47.060;15.064;2023-06-10T08:51:11;21.50;35.90
4795;DHT22;2411;47.060;15.064;2023-06-10T08:53:46;21.60;36.30
4795;DHT22;2411;47.060;15.064;2023-06-10T08:56:16;21.30;35.00
4795;DHT22;2411;47.060;15.064;2023-06-10T08:58:45;21.60;36.00
4795;DHT22;2411;47.060;15.064;2023-06-10T09:01:13;21.90;36.80
4795;DHT22;2411;47.060;15.064;2023-06-10T09:03:41;22.00;36.70
4795;DHT22;2411;47.060;15.064;2023-06-10T09:06:09;21.90;36.60
4795;DHT22;2411;47.060;15.064;2023-06-10T09:08:36;22.20;37.30
4795;DHT22;2411;47.060;15.064;2023-06-10T09:11:04;22.10;36.50
4795;DHT22;2411;47.060;15.064;2023-06-10T09:13:32;22.00;34.80
4795;DHT22;2411;47.060;15.064;2023-06-10T09:15:59;22.20;36.50
4795;DHT22;2411;47.060;15.064;2023-06-10T09:18:28;22.20;37.40
4795;DHT22;2411;47.060;15.064;2023-06-10T09:20:56;22.50;35.00
4795;DHT22;2411;47.060;15.064;2023-06-10T09:23:23;22.50;35.50
4795;DHT22;2411;47.060;15.064;2023-06-10T09:25:57;22.60;36.30
4795;DHT22;2411;47.060;15.064;2023-06-10T09:28:25;22.90;37.50
4795;DHT22;2411;47.060;15.064;2023-06-10T09:31:13;23.40;40.00
4795;DHT22;2411;47.060;15.064;2023-06-10T09:33:41;23.60;40.40
4795;DHT22;2411;47.060;15.064;2023-06-10T09:36:08;23.40;38.70
4795;DHT22;2411;47.060;15.064;2023-06-10T09:38:36;23.30;37.10
4795;DHT22;2411;47.060;15.064;2023-06-10T09:41:03;23.30;36.70
4795;DHT22;2411;47.060;15.064;2023-06-10T09:43:41;22.60;30.80
4795;DHT22;2411;47.060;15.064;2023-06-10T09:46:17;23.00;34.90
4795;DHT22;2411;47.060;15.064;2023-06-10T09:48:46;23.30;36.90
4795;DHT22;2411;47.060;15.064;2023-06-10T09:51:15;23.10;35.30
4795;DHT22;2411;47.060;15.064;2023-06-10T09:53:51;23.20;35.40
4795;DHT22;2411;47.060;15.064;2023-06-10T09:56:18;23.20;36.40
4795;DHT22;2411;47.060;15.064;2023-06-10T09:58:46;23.20;34.60
4795;DHT22;2411;47.060;15.064;2023-06-10T10:01:14;23.30;35.20
4795;DHT22;2411;47.060;15.064;2023-06-10T10:03:50;23.10;34.80
4795;DHT22;2411;47.060;15.064;2023-06-10T10:06:19;23.30;35.10
4795;DHT22;2411;47.060;15.064;2023-06-10T10:08:49;23.50;36.20
4795;DHT22;2411;47.060;15.064;2023-06-10T10:11:19;23.40;34.80
4795;DHT22;2411;47.060;15.064;2023-06-10T10:13:50;24.00;39.30
4795;DHT22;2411;47.060;15.064;2023-06-10T10:16:37;23.80;37.10
4795;DHT22;2411;47.060;15.064;2023-06-10T10:19:23;23.50;33.90
4795;DHT22;2411;47.060;15.064;2023-06-10T10:22:03;23.90;37.50
4795;DHT22;2411;47.060;15.064;2023-06-10T10:24:38;23.80;35.90
4795;DHT22;2411;47.060;15.064;2023-06-10T10:27:14;23.70;34.30
4795;DHT22;2411;47.060;15.064;2023-06-10T10:29:47;23.90;36.30
4795;DHT22;2411;47.060;15.064;2023-06-10T10:32:16;23.70;35.10
4795;DHT22;2411;47.060;15.064;2023-06-10T10:34:50;23.60;32.50
4795;DHT22;2411;47.060;15.064;2023-06-10T10:37:20;23.60;51.30
4795;DHT22;2411;47.060;15.064;2023-06-10T10:39:49;23.50;32.90
4795;DHT22;2411;47.060;15.064;2023-06-10T10:42:17;23.80;32.80
4795;DHT22;2411;47.060;15.064;2023-06-10T10:44:45;23.60;31.60
4795;DHT22;2411;47.060;15.064;2023-06-10T10:47:14;23.70;33.60
4795;DHT22;2411;47.060;15.064;2023-06-10T10:49:43;23.90;33.80
4795;DHT22;2411;47.060;15.064;2023-06-10T10:52:12;23.90;33.80
4795;DHT22;2411;47.060;15.064;2023-06-10T10:54:44;23.90;34.70
4795;DHT22;2411;47.060;15.064;2023-06-10T10:57:20;24.10;34.70
4795;DHT22;2411;47.060;15.064;2023-06-10T10:59:58;24.10;35.90
4795;DHT22;2411;47.060;15.064;2023-06-10T11:05:00;24.30;35.20
4795;DHT22;2411;47.060;15.064;2023-06-10T11:07:32;24.60;36.50
4795;DHT22;2411;47.060;15.064;2023-06-10T11:10:05;24.50;35.90
4795;DHT22;2411;47.060;15.064;2023-06-10T11:15:09;24.30;32.80
4795;DHT22;2411;47.060;15.064;2023-06-10T11:17:37;24.40;32.10
4795;DHT22;2411;47.060;15.064;2023-06-10T11:20:05;24.50;34.00
4795;DHT22;2411;47.060;15.064;2023-06-10T11:23:02;24.50;34.30
4795;DHT22;2411;47.060;15.064;2023-06-10T11:25:39;24.60;34.20
4795;DHT22;2411;47.060;15.064;2023-06-10T11:28:19;24.70;34.40
4795;DHT22;2411;47.060;15.064;2023-06-10T11:30:57;25.10;36.60
4795;DHT22;2411;47.060;15.064;2023-06-10T11:33:24;25.00;36.20
4795;DHT22;2411;47.060;15.064;2023-06-10T11:35:52;25.00;34.60
4795;DHT22;2411;47.060;15.064;2023-06-10T11:38:19;24.80;51.60
4795;DHT22;2411;47.060;15.064;2023-06-10T11:40:51;24.60;30.50
4795;DHT22;2411;47.060;15.064;2023-06-10T11:43:18;24.30;28.70
4795;DHT22;2411;47.060;15.064;2023-06-10T11:45:46;24.70;30.20
4795;DHT22;2411;47.060;15.064;2023-06-10T11:48:13;24.50;30.10
4795;DHT22;2411;47.060;15.064;2023-06-10T11:50:41;25.10;34.80
4795;DHT22;2411;47.060;15.064;2023-06-10T11:53:08;25.10;32.00
4795;DHT22;2411;47.060;15.064;2023-06-10T11:55:47;24.50;28.90
4795;DHT22;2411;47.060;15.064;2023-06-10T11:58:16;24.80;31.40
4795;DHT22;2411;47.060;15.064;2023-06-10T12:00:47;24.90;32.00
4795;DHT22;2411;47.060;15.064;2023-06-10T12:03:15;25.10;32.60
4795;DHT22;2411;47.060;15.064;2023-06-10T12:06:05;25.40;34.50
4795;DHT22;2411;47.060;15.064;2023-06-10T12:08:33;25.50;35.10
4795;DHT22;2411;47.060;15.064;2023-06-10T12:11:08;25.90;38.70
4795;DHT22;2411;47.060;15.064;2023-06-10T12:13:35;25.70;34.30
4795;DHT22;2411;47.060;15.064;2023-06-10T12:16:09;26.00;36.90
4795;DHT22;2411;47.060;15.064;2023-06-10T12:18:37;25.60;33.60
4795;DHT22;2411;47.060;15.064;2023-06-10T12:21:16;25.80;34.10
4795;DHT22;2411;47.060;15.064;2023-06-10T12:24:04;25.80;34.20
4795;DHT22;2411;47.060;15.064;2023-06-10T12:26:42;26.10;35.40
4795;DHT22;2411;47.060;15.064;2023-06-10T12:29:23;26.20;54.80
4795;DHT22;2411;47.060;15.064;2023-06-10T12:32:01;26.30;35.80
4795;DHT22;2411;47.060;15.064;2023-06-10T12:34:32;26.40;35.20
4795;DHT22;2411;47.060;15.064;2023-06-10T12:37:10;26.60;38.20
4795;DHT22;2411;47.060;15.064;2023-06-10T12:39:41;26.60;37.70
4795;DHT22;2411;47.060;15.064;2023-06-10T12:42:09;26.60;36.20
4795;DHT22;2411;47.060;15.064;2023-06-10T12:44:40;26.40;33.50
4795;DHT22;2411;47.060;15.064;2023-06-10T12:47:11;26.30;33.20
4795;DHT22;2411;47.060;15.064;2023-06-10T12:49:41;25.90;30.30
4795;DHT22;2411;47.060;15.064;2023-06-10T12:52:09;26.20;32.50
4795;DHT22;2411;47.060;15.064;2023-06-10T12:54:36;26.20;32.90
4795;DHT22;2411;47.060;15.064;2023-06-10T12:57:04;26.40;33.50
4795;DHT22;2411;47.060;15.064;2023-06-10T12:59:31;26.20;31.80
4795;DHT22;2411;47.060;15.064;2023-06-10T13:02:21;26.30;32.80
4795;DHT22;2411;47.060;15.064;2023-06-10T13:04:51;26.40;33.20
4795;DHT22;2411;47.060;15.064;2023-06-10T13:07:18;26.10;28.90
4795;DHT22;2411;47.060;15.064;2023-06-10T13:09:45;26.50;31.40
4795;DHT22;2411;47.060;15.064;2023-06-10T13:12:16;26.40;32.60
4795;DHT22;2411;47.060;15.064;2023-06-10T13:14:53;26.40;33.40
4795;DHT22;2411;47.060;15.064;2023-06-10T13:17:21;26.30;31.20
4795;DHT22;2411;47.060;15.064;2023-06-10T13:19:49;25.90;28.90
4795;DHT22;2411;47.060;15.064;2023-06-10T13:22:16;25.40;25.80
4795;DHT22;2411;47.060;15.064;2023-06-10T13:24:46;24.90;23.90
4795;DHT22;2411;47.060;15.064;2023-06-10T13:27:13;25.10;24.00
4795;DHT22;2411;47.060;15.064;2023-06-10T13:29:41;24.90;23.30
4795;DHT22;2411;47.060;15.064;2023-06-10T13:32:08;24.50;20.70
4795;DHT22;2411;47.060;15.064;2023-06-10T13:34:36;24.50;21.40
4795;DHT22;2411;47.060;15.064;2023-06-10T13:37:03;24.50;21.30
4795;DHT22;2411;47.060;15.064;2023-06-10T13:39:32;24.10;20.40
4795;DHT22;2411;47.060;15.064;2023-06-10T13:41:59;23.30;16.70
4795;DHT22;2411;47.060;15.064;2023-06-10T13:44:26;22.70;13.30
4795;DHT22;2411;47.060;15.064;2023-06-10T13:46:57;22.30;10.90
4795;DHT22;2411;47.060;15.064;2023-06-10T13:49:25;22.00;10.30
4795;DHT22;2411;47.060;15.064;2023-06-10T13:51:52;21.40;6.50
4795;DHT22;2411;47.060;15.064;2023-06-10T13:54:19;20.80;5.50
4795;DHT22;2411;47.060;15.064;2023-06-10T13:56:48;20.50;3.80
4795;DHT22;2411;47.060;15.064;2023-06-10T13:59:15;20.30;4.50
4795;DHT22;2411;47.060;15.064;2023-06-10T14:01:42;20.00;5.30
4795;DHT22;2411;47.060;15.064;2023-06-10T14:04:10;19.80;2.10
4795;DHT22;2411;47.060;15.064;2023-06-10T14:06:37;19.60;1.00
4795;DHT22;2411;47.060;15.064;2023-06-10T14:09:05;19.30;2.20
4795;DHT22;2411;47.060;15.064;2023-06-10T14:11:32;19.10;2.80
4795;DHT22;2411;47.060;15.064;2023-06-10T14:14:01;18.70;1.00
4795;DHT22;2411;47.060;15.064;2023-06-10T14:16:28;18.50;1.00
4795;DHT22;2411;47.060;15.064;2023-06-10T14:18:56;18.60;2.90
4795;DHT22;2411;47.060;15.064;2023-06-10T14:21:23;18.50;4.60
4795;DHT22;2411;47.060;15.064;2023-06-10T14:23:51;18.50;4.60
4795;DHT22;2411;47.060;15.064;2023-06-10T14:26:20;18.50;9.90
4795;DHT22;2411;47.060;15.064;2023-06-10T14:28:49;18.60;10.20
4795;DHT22;2411;47.060;15.064;2023-06-10T14:31:16;18.60;10.00
4795;DHT22;2411;47.060;15.064;2023-06-10T14:33:44;18.50;10.80
4795;DHT22;2411;47.060;15.064;2023-06-10T14:36:11;18.50;9.70
4795;DHT22;2411;47.060;15.064;2023-06-10T14:38:38;18.40;11.80
4795;DHT22;2411;47.060;15.064;2023-06-10T14:41:06;18.30;12.90
4795;DHT22;2411;47.060;15.064;2023-06-10T14:43:33;18.20;16.30
4795;DHT22;2411;47.060;15.064;2023-06-10T14:46:00;18.40;18.90
4795;DHT22;2411;47.060;15.064;2023-06-10T14:48:28;18.40;19.10
4795;DHT22;2411;47.060;15.064;2023-06-10T14:50:55;18.40;19.10
4795;DHT22;2411;47.060;15.064;2023-06-10T14:53:22;18.20;18.80
4795;DHT22;2411;47.060;15.064;2023-06-10T14:55:49;18.40;20.60
4795;DHT22;2411;47.060;15.064;2023-06-10T14:58:17;18.40;17.50
4795;DHT22;2411;47.060;15.064;2023-06-10T15:00:44;18.50;20.60
4795;DHT22;2411;47.060;15.064;2023-06-10T15:03:12;18.50;25.10
4795;DHT22;2411;47.060;15.064;2023-06-10T15:05:39;18.60;25.60
4795;DHT22;2411;47.060;15.064;2023-06-10T15:08:06;18.60;25.80
4795;DHT22;2411;47.060;15.064;2023-06-10T15:10:34;18.50;23.10
4795;DHT22;2411;47.060;15.064;2023-06-10T15:13:02;18.20;21.50
4795;DHT22;2411;47.060;15.064;2023-06-10T15:15:29;18.10;22.50
4795;DHT22;2411;47.060;15.064;2023-06-10T15:17:56;18.10;26.90
4795;DHT22;2411;47.060;15.064;2023-06-10T15:20:24;18.10;20.20
4795;DHT22;2411;47.060;15.064;2023-06-10T15:22:51;18.00;16.80
4795;DHT22;2411;47.060;15.064;2023-06-10T15:25:20;17.80;16.40
4795;DHT22;2411;47.060;15.064;2023-06-10T15:27:57;17.70;18.20
4795;DHT22;2411;47.060;15.064;2023-06-10T15:30:25;17.80;18.20
4795;DHT22;2411;47.060;15.064;2023-06-10T15:32:53;17.70;19.60
4795;DHT22;2411;47.060;15.064;2023-06-10T15:35:20;17.80;21.00
4795;DHT22;2411;47.060;15.064;2023-06-10T15:37:49;17.80;26.40
4795;DHT22;2411;47.060;15.064;2023-06-10T15:40:16;17.80;29.80
4795;DHT22;2411;47.060;15.064;2023-06-10T15:42:43;17.80;27.70
4795;DHT22;2411;47.060;15.064;2023-06-10T15:45:11;17.80;28.30
4795;DHT22;2411;47.060;15.064;2023-06-10T15:47:39;17.90;27.40
4795;DHT22;2411;47.060;15.064;2023-06-10T15:50:09;17.90;30.40
4795;DHT22;2411;47.060;15.064;2023-06-10T15:52:37;17.90;30.70
4795;DHT22;2411;47.060;15.064;2023-06-10T15:55:04;18.00;32.90
4795;DHT22;2411;47.060;15.064;2023-06-10T15:57:32;18.00;33.80
4795;DHT22;2411;47.060;15.064;2023-06-10T15:59:59;17.80;36.60
4795;DHT22;2411;47.060;15.064;2023-06-10T16:02:26;17.80;44.30
4795;DHT22;2411;47.060;15.064;2023-06-10T16:04:53;17.80;38.30
4795;DHT22;2411;47.060;15.064;2023-06-10T16:07:21;17.90;34.00
4795;DHT22;2411;47.060;15.064;2023-06-10T16:09:48;17.90;36.70